sensor_id;sensor_type;location;lat;lon;timestamp;pressure;altitude;pressure_sealevel;temperature;humidity
37200;BME280;23096;50.892;16.746;2022-09-09T00:04:40;98924.50;;;17.34;72.74
37200;BME280;23096;50.892;16.746;2022-09-09T00:07:14;98924.86;;;17.42;72.61
37200;BME280;23096;50.892;16.746;2022-09-09T00:12:41;98926.16;;;17.42;72.30
37200;BME280;23096;50.892;16.746;2022-09-09T00:15:20;98929.33;;;17.40;72.14
37200;BME280;23096;50.892;16.746;2022-09-09T00:18:00;98933.42;;;17.37;72.11
37200;BME280;23096;50.892;16.746;2022-09-09T00:20:48;98933.62;;;17.34;72.02
37200;BME280;23096;50.892;16.746;2022-09-09T00:26:02;98924.22;;;17.39;72.04
37200;BME280;23096;50.892;16.746;2022-09-09T00:28:29;98924.57;;;17.40;71.97
37200;BME280;23096;50.892;16.746;2022-09-09T00:31:14;98924.95;;;17.41;71.83
37200;BME280;23096;50.892;16.746;2022-09-09T00:33:54;98920.03;;;17.36;71.74
37200;BME280;23096;50.892;16.746;2022-09-09T00:36:39;98927.02;;;17.36;71.79
37200;BME280;23096;50.892;16.746;2022-09-09T00:39:08;98924.66;;;17.38;71.66
37200;BME280;23096;50.892;16.746;2022-09-09T00:44:30;98924.57;;;17.40;71.59
37200;BME280;23096;50.892;16.746;2022-09-09T00:47:04;98920.22;;;17.40;71.62
37200;BME280;23096;50.892;16.746;2022-09-09T00:52:38;98919.42;;;17.46;71.41
37200;BME280;23096;50.892;16.746;2022-09-09T00:55:07;98912.85;;;17.40;71.23
37200;BME280;23096;50.892;16.746;2022-09-09T00:57:35;98920.95;;;17.42;71.29
37200;BME280;23096;50.892;16.746;2022-09-09T01:00:21;98925.94;;;17.46;71.32
37200;BME280;23096;50.892;16.746;2022-09-09T01:02:55;98921.02;;;17.48;71.19
37200;BME280;23096;50.892;16.746;2022-09-09T01:05:33;98920.53;;;17.49;71.09
37200;BME280;23096;50.892;16.746;2022-09-09T01:08:06;98928.45;;;17.47;71.07
37200;BME280;23096;50.892;16.746;2022-09-09T01:10:50;98921.08;;;17.54;71.09
37200;BME280;23096;50.892;16.746;2022-09-09T01:13:27;98927.39;;;17.57;70.94
37200;BME280;23096;50.892;16.746;2022-09-09T01:16:01;98926.44;;;17.58;70.80
37200;BME280;23096;50.892;16.746;2022-09-09T01:18:32;98934.83;;;17.56;70.67
37200;BME280;23096;50.892;16.746;2022-09-09T01:24:20;98934.67;;;17.52;70.49
37200;BME280;23096;50.892;16.746;2022-09-09T01:27:01;98934.28;;;17.51;70.50
37200;BME280;23096;50.892;16.746;2022-09-09T01:29:32;98936.89;;;17.51;70.43
37200;BME280;23096;50.892;16.746;2022-09-09T01:32:35;98940.26;;;17.46;70.26
37200;BME280;23096;50.892;16.746;2022-09-09T01:34:30;98942.86;;;17.46;70.43
37200;BME280;23096;50.892;16.746;2022-09-09T01:36:59;98942.33;;;17.48;70.35
37200;BME280;23096;50.892;16.746;2022-09-09T01:39:27;98943.50;;;17.49;70.23
37200;BME280;23096;50.892;16.746;2022-09-09T01:41:58;98943.63;;;17.48;70.18
37200;BME280;23096;50.892;16.746;2022-09-09T01:44:24;98948.70;;;17.49;70.15
37200;BME280;23096;50.892;16.746;2022-09-09T01:46:51;98952.74;;;17.48;70.06
37200;BME280;23096;50.892;16.746;2022-09-09T01:49:19;98949.56;;;17.50;70.10
37200;BME280;23096;50.892;16.746;2022-09-09T01:51:46;98952.08;;;17.51;69.96
37200;BME280;23096;50.892;16.746;2022-09-09T01:54:15;98952.90;;;17.52;69.95
37200;BME280;23096;50.892;16.746;2022-09-09T01:56:57;98949.25;;;17.54;69.89
37200;BME280;23096;50.892;16.746;2022-09-09T01:59:42;98948.48;;;17.59;69.83
37200;BME280;23096;50.892;16.746;2022-09-09T02:02:10;98954.17;;;17.59;69.63
37200;BME280;23096;50.892;16.746;2022-09-09T02:04:43;98961.61;;;17.58;69.54
37200;BME280;23096;50.892;16.746;2022-09-09T02:07:31;98959.57;;;17.56;69.43
37200;BME280;23096;50.892;16.746;2022-09-09T02:10:09;98957.54;;;17.54;69.41
37200;BME280;23096;50.892;16.746;2022-09-09T02:12:56;98962.17;;;17.56;69.38
37200;BME280;23096;50.892;16.746;2022-09-09T02:15:47;98954.84;;;17.55;69.28
37200;BME280;23096;50.892;16.746;2022-09-09T02:21:30;98964.59;;;17.59;69.08
37200;BME280;23096;50.892;16.746;2022-09-09T02:23:58;98958.42;;;17.60;69.00
37200;BME280;23096;50.892;16.746;2022-09-09T02:26:25;98956.39;;;17.58;68.90
37200;BME280;23096;50.892;16.746;2022-09-09T02:28:54;98950.70;;;17.58;68.84
37200;BME280;23096;50.892;16.746;2022-09-09T02:31:23;98962.33;;;17.60;68.72
37200;BME280;23096;50.892;16.746;2022-09-09T02:33:52;98957.51;;;17.61;68.63
37200;BME280;23096;50.892;16.746;2022-09-09T02:36:25;98956.77;;;17.59;68.44
37200;BME280;23096;50.892;16.746;2022-09-09T02:38:54;98959.57;;;17.56;68.31
37200;BME280;23096;50.892;16.746;2022-09-09T02:41:24;98962.66;;;17.55;68.21
37200;BME280;23096;50.892;16.746;2022-09-09T02:43:56;98972.78;;;17.53;68.16
37200;BME280;23096;50.892;16.746;2022-09-09T02:46:27;98967.22;;;17.52;68.05
37200;BME280;23096;50.892;16.746;2022-09-09T02:49:07;98973.73;;;17.52;67.97
37200;BME280;23096;50.892;16.746;2022-09-09T02:51:52;98961.86;;;17.48;67.84
37200;BME280;23096;50.892;16.746;2022-09-09T02:54:27;98969.38;;;17.45;67.77
37200;BME280;23096;50.892;16.746;2022-09-09T02:57:10;98973.29;;;17.45;67.78
37200;BME280;23096;50.892;16.746;2022-09-09T02:59:33;98969.77;;;17.46;67.72
37200;BME280;23096;50.892;16.746;2022-09-09T03:01:59;98975.42;;;17.46;67.60
37200;BME280;23096;50.892;16.746;2022-09-09T03:04:26;98978.97;;;17.44;67.57
37200;BME280;23096;50.892;16.746;2022-09-09T03:06:53;98981.92;;;17.46;67.50
37200;BME280;23096;50.892;16.746;2022-09-09T03:09:19;98979.33;;;17.46;67.40
37200;BME280;23096;50.892;16.746;2022-09-09T03:11:47;98982.50;;;17.43;67.31
37200;BME280;23096;50.892;16.746;2022-09-09T03:14:16;98987.61;;;17.45;67.30
37200;BME280;23096;50.892;16.746;2022-09-09T03:16:42;98987.70;;;17.43;67.16
37200;BME280;23096;50.892;16.746;2022-09-09T03:19:08;98983.80;;;17.43;67.08
37200;BME280;23096;50.892;16.746;2022-09-09T03:21:34;98985.67;;;17.41;67.06
37200;BME280;23096;50.892;16.746;2022-09-09T03:24:04;98986.50;;;17.42;66.99
37200;BME280;23096;50.892;16.746;2022-09-09T03:26:32;98984.37;;;17.41;66.98
37200;BME280;23096;50.892;16.746;2022-09-09T03:28:59;98981.29;;;17.42;66.90
37200;BME280;23096;50.892;16.746;2022-09-09T03:31:26;98980.46;;;17.41;66.87
37200;BME280;23096;50.892;16.746;2022-09-09T03:33:55;98985.51;;;17.37;66.68
37200;BME280;23096;50.892;16.746;2022-09-09T03:36:25;98989.25;;;17.33;66.68
37200;BME280;23096;50.892;16.746;2022-09-09T03:38:52;98995.47;;;17.31;66.65
37200;BME280;23096;50.892;16.746;2022-09-09T03:41:24;98989.63;;;17.27;66.60
37200;BME280;23096;50.892;16.746;2022-09-09T03:43:50;98993.62;;;17.25;66.62
37200;BME280;23096;50.892;16.746;2022-09-09T03:46:22;98987.33;;;17.22;66.58
37200;BME280;23096;50.892;16.746;2022-09-09T03:48:49;98988.16;;;17.23;66.58
37200;BME280;23096;50.892;16.746;2022-09-09T03:51:18;98991.80;;;17.20;66.53
37200;BME280;23096;50.892;16.746;2022-09-09T03:53:45;98992.81;;;17.18;66.47
37200;BME280;23096;50.892;16.746;2022-09-09T03:56:12;98994.30;;;17.15;66.49
37200;BME280;23096;50.892;16.746;2022-09-09T03:58:38;99003.53;;;17.13;66.51
37200;BME280;23096;50.892;16.746;2022-09-09T04:01:11;99000.45;;;17.14;66.51
37200;BME280;23096;50.892;16.746;2022-09-09T04:03:36;99002.58;;;17.14;66.51
37200;BME280;23096;50.892;16.746;2022-09-09T04:06:03;99002.01;;;17.16;66.53
37200;BME280;23096;50.892;16.746;2022-09-09T04:08:30;99001.19;;;17.16;66.41
37200;BME280;23096;50.892;16.746;2022-09-09T04:11:01;99004.45;;;17.12;66.33
37200;BME280;23096;50.892;16.746;2022-09-09T04:13:30;99009.39;;;17.10;66.26
37200;BME280;23096;50.892;16.746;2022-09-09T04:15:57;99006.97;;;17.07;66.28
37200;BME280;23096;50.892;16.746;2022-09-09T04:18:24;99010.96;;;17.05;66.24
37200;BME280;23096;50.892;16.746;2022-09-09T04:20:51;99006.41;;;17.01;66.22
37200;BME280;23096;50.892;16.746;2022-09-09T04:23:20;99013.02;;;17.00;66.25
37200;BME280;23096;50.892;16.746;2022-09-09T04:25:50;99006.59;;;16.98;66.24
37200;BME280;23096;50.892;16.746;2022-09-09T04:28:17;99012.37;;;16.96;66.23
37200;BME280;23096;50.892;16.746;2022-09-09T04:30:45;99008.67;;;16.93;66.17
37200;BME280;23096;50.892;16.746;2022-09-09T04:33:12;99014.32;;;16.93;66.16
37200;BME280;23096;50.892;16.746;2022-09-09T04:35:39;99014.53;;;16.90;66.20
37200;BME280;23096;50.892;16.746;2022-09-09T04:38:10;99013.32;;;16.88;66.22
37200;BME280;23096;50.892;16.746;2022-09-09T04:40:37;99008.12;;;16.88;66.24
37200;BME280;23096;50.892;16.746;2022-09-09T04:43:05;99011.16;;;16.88;66.26
37200;BME280;23096;50.892;16.746;2022-09-09T04:45:32;99017.31;;;16.86;66.21
37200;BME280;23096;50.892;16.746;2022-09-09T04:48:02;99018.70;;;16.85;66.27
37200;BME280;23096;50.892;16.746;2022-09-09T04:50:28;99022.05;;;16.87;66.34
37200;BME280;23096;50.892;16.746;2022-09-09T04:52:56;99021.03;;;16.90;66.40
37200;BME280;23096;50.892;16.746;2022-09-09T04:55:22;99020.09;;;16.91;66.39
37200;BME280;23096;50.892;16.746;2022-09-09T04:57:48;99022.51;;;16.94;66.45
37200;BME280;23096;50.892;16.746;2022-09-09T05:00:14;99023.60;;;16.97;66.42
37200;BME280;23096;50.892;16.746;2022-09-09T05:02:43;99017.86;;;16.99;66.42
37200;BME280;23096;50.892;16.746;2022-09-09T05:05:09;99019.91;;;17.01;66.42
37200;BME280;23096;50.892;16.746;2022-09-09T05:07:36;99019.34;;;17.03;66.41
37200;BME280;23096;50.892;16.746;2022-09-09T05:10:03;99027.50;;;17.04;66.44
37200;BME280;23096;50.892;16.746;2022-09-09T05:12:31;99034.56;;;17.02;66.35
37200;BME280;23096;50.892;16.746;2022-09-09T05:14:57;99027.41;;;16.98;66.32
37200;BME280;23096;50.892;16.746;2022-09-09T05:17:23;99029.28;;;16.96;66.32
37200;BME280;23096;50.892;16.746;2022-09-09T05:19:50;99030.41;;;16.92;66.32
37200;BME280;23096;50.892;16.746;2022-09-09T05:22:19;99031.32;;;16.91;66.38
37200;BME280;23096;50.892;16.746;2022-09-09T05:24:46;99031.89;;;16.89;66.40
37200;BME280;23096;50.892;16.746;2022-09-09T05:27:12;99036.53;;;16.84;66.37
37200;BME280;23096;50.892;16.746;2022-09-09T05:29:38;99034.41;;;16.83;66.46
37200;BME280;23096;50.892;16.746;2022-09-09T05:32:06;99030.29;;;16.79;66.51
37200;BME280;23096;50.892;16.746;2022-09-09T05:34:34;99039.31;;;16.81;66.56
37200;BME280;23096;50.892;16.746;2022-09-09T05:37:00;99038.45;;;16.80;66.64
37200;BME280;23096;50.892;16.746;2022-09-09T05:39:26;99038.45;;;16.80;66.68
37200;BME280;23096;50.892;16.746;2022-09-09T05:41:53;99038.01;;;16.81;66.73
37200;BME280;23096;50.892;16.746;2022-09-09T05:44:19;99040.96;;;16.82;66.79
37200;BME280;23096;50.892;16.746;2022-09-09T05:46:45;99042.68;;;16.83;66.84
37200;BME280;23096;50.892;16.746;2022-09-09T05:49:11;99037.62;;;16.80;66.85
37200;BME280;23096;50.892;16.746;2022-09-09T05:51:39;99041.05;;;16.80;66.97
37200;BME280;23096;50.892;16.746;2022-09-09T05:54:07;99040.52;;;16.82;66.99
37200;BME280;23096;50.892;16.746;2022-09-09T05:56:35;99036.62;;;16.82;67.12
37200;BME280;23096;50.892;16.746;2022-09-09T05:59:01;99029.49;;;16.86;67.26
37200;BME280;23096;50.892;16.746;2022-09-09T06:01:28;99036.08;;;16.92;67.35
37200;BME280;23096;50.892;16.746;2022-09-09T06:04:00;99033.19;;;16.96;67.48
37200;BME280;23096;50.892;16.746;2022-09-09T06:06:25;99027.33;;;17.00;67.55
37200;BME280;23096;50.892;16.746;2022-09-09T06:08:56;99031.31;;;17.05;67.62
37200;BME280;23096;50.892;16.746;2022-09-09T06:11:25;99027.48;;;17.11;67.71
37200;BME280;23096;50.892;16.746;2022-09-09T06:13:58;99033.16;;;17.18;67.77
37200;BME280;23096;50.892;16.746;2022-09-09T06:16:25;99035.02;;;17.23;67.83
37200;BME280;23096;50.892;16.746;2022-09-09T06:18:53;99028.48;;;17.30;67.91
37200;BME280;23096;50.892;16.746;2022-09-09T06:21:21;99036.28;;;17.37;67.95
37200;BME280;23096;50.892;16.746;2022-09-09T06:23:50;99035.79;;;17.45;68.01
37200;BME280;23096;50.892;16.746;2022-09-09T06:26:23;99039.86;;;17.49;68.08
37200;BME280;23096;50.892;16.746;2022-09-09T06:28:52;99041.14;;;17.56;68.17
37200;BME280;23096;50.892;16.746;2022-09-09T06:31:21;99042.99;;;17.61;68.20
37200;BME280;23096;50.892;16.746;2022-09-09T06:33:49;99044.94;;;17.65;68.26
37200;BME280;23096;50.892;16.746;2022-09-09T06:36:18;99035.53;;;17.70;68.30
37200;BME280;23096;50.892;16.746;2022-09-09T06:38:45;99035.44;;;17.71;68.36
37200;BME280;23096;50.892;16.746;2022-09-09T06:41:13;99045.64;;;17.74;68.40
37200;BME280;23096;50.892;16.746;2022-09-09T06:43:41;99045.45;;;17.77;68.42
37200;BME280;23096;50.892;16.746;2022-09-09T06:46:11;99047.02;;;17.80;68.47
37200;BME280;23096;50.892;16.746;2022-09-09T06:48:42;99053.24;;;17.85;68.55
37200;BME280;23096;50.892;16.746;2022-09-09T06:51:15;99050.25;;;17.91;68.62
37200;BME280;23096;50.892;16.746;2022-09-09T06:53:44;99048.19;;;17.96;68.70
37200;BME280;23096;50.892;16.746;2022-09-09T06:58:47;99056.77;;;18.11;68.85
37200;BME280;23096;50.892;16.746;2022-09-09T07:01:16;99059.81;;;18.17;68.94
37200;BME280;23096;50.892;16.746;2022-09-09T07:03:47;99054.56;;;18.25;69.00
37200;BME280;23096;50.892;16.746;2022-09-09T07:06:15;99058.53;;;18.30;69.06
37200;BME280;23096;50.892;16.746;2022-09-09T07:08:49;99055.30;;;18.39;69.18
37200;BME280;23096;50.892;16.746;2022-09-09T07:11:16;99056.08;;;18.47;69.20
37200;BME280;23096;50.892;16.746;2022-09-09T07:13:42;99050.81;;;18.54;69.28
37200;BME280;23096;50.892;16.746;2022-09-09T07:16:12;99050.32;;;18.62;69.31
37200;BME280;23096;50.892;16.746;2022-09-09T07:18:40;99055.93;;;18.69;69.35
37200;BME280;23096;50.892;16.746;2022-09-09T07:21:08;99061.33;;;18.73;69.31
37200;BME280;23096;50.892;16.746;2022-09-09T07:23:35;99059.21;;;18.78;69.40
37200;BME280;23096;50.892;16.746;2022-09-09T07:26:02;99060.34;;;18.81;69.34
37200;BME280;23096;50.892;16.746;2022-09-09T07:28:30;99065.95;;;18.82;69.39
37200;BME280;23096;50.892;16.746;2022-09-09T07:30:57;99067.39;;;18.86;69.37
37200;BME280;23096;50.892;16.746;2022-09-09T07:33:29;99063.17;;;18.91;69.42
37200;BME280;23096;50.892;16.746;2022-09-09T07:36:11;99063.84;;;19.00;69.42
37200;BME280;23096;50.892;16.746;2022-09-09T07:38:38;99063.98;;;19.04;69.44
37200;BME280;23096;50.892;16.746;2022-09-09T07:41:06;99074.84;;;19.11;69.42
37200;BME280;23096;50.892;16.746;2022-09-09T07:43:35;99069.66;;;19.17;69.41
37200;BME280;23096;50.892;16.746;2022-09-09T07:46:01;99074.34;;;19.24;69.45
37200;BME280;23096;50.892;16.746;2022-09-09T07:48:28;99068.45;;;19.33;69.49
37200;BME280;23096;50.892;16.746;2022-09-09T07:51:03;99066.70;;;19.40;69.42
37200;BME280;23096;50.892;16.746;2022-09-09T07:53:32;99066.18;;;19.47;69.50
37200;BME280;23096;50.892;16.746;2022-09-09T07:56:03;99067.06;;;19.59;69.41
37200;BME280;23096;50.892;16.746;2022-09-09T07:58:33;99067.33;;;19.62;69.19
37200;BME280;23096;50.892;16.746;2022-09-09T08:00:59;99067.70;;;19.68;68.95
37200;BME280;23096;50.892;16.746;2022-09-09T08:03:25;99070.85;;;19.73;68.77
37200;BME280;23096;50.892;16.746;2022-09-09T08:05:52;99072.29;;;19.78;68.62
37200;BME280;23096;50.892;16.746;2022-09-09T08:08:18;99063.54;;;19.84;68.53
37200;BME280;23096;50.892;16.746;2022-09-09T08:10:44;99060.35;;;19.92;68.46
37200;BME280;23096;50.892;16.746;2022-09-09T08:13:10;99060.52;;;19.96;68.25
37200;BME280;23096;50.892;16.746;2022-09-09T08:15:36;99056.00;;;19.98;68.07
37200;BME280;23096;50.892;16.746;2022-09-09T08:18:20;99055.05;;;20.05;67.96
37200;BME280;23096;50.892;16.746;2022-09-09T08:20:38;99055.55;;;20.10;67.81
37200;BME280;23096;50.892;16.746;2022-09-09T08:23:04;99061.50;;;20.12;67.62
37200;BME280;23096;50.892;16.746;2022-09-09T08:25:30;99061.88;;;20.19;67.57
37200;BME280;23096;50.892;16.746;2022-09-09T08:27:56;99066.91;;;20.27;67.53
37200;BME280;23096;50.892;16.746;2022-09-09T08:30:22;99064.42;;;20.37;67.39
37200;BME280;23096;50.892;16.746;2022-09-09T08:32:48;99064.91;;;20.42;67.14
37200;BME280;23096;50.892;16.746;2022-09-09T08:35:16;99064.57;;;20.41;66.87
37200;BME280;23096;50.892;16.746;2022-09-09T08:37:43;99073.96;;;20.44;66.71
37200;BME280;23096;50.892;16.746;2022-09-09T08:40:11;99072.17;;;20.44;66.56
37200;BME280;23096;50.892;16.746;2022-09-09T08:42:44;99077.06;;;20.43;66.36
37200;BME280;23096;50.892;16.746;2022-09-09T08:50:30;99080.28;;;20.53;65.95
37200;BME280;23096;50.892;16.746;2022-09-09T08:53:03;99081.12;;;20.59;65.79
37200;BME280;23096;50.892;16.746;2022-09-09T08:55:39;99080.70;;;20.71;65.67
37200;BME280;23096;50.892;16.746;2022-09-09T08:58:27;99083.06;;;20.79;65.45
37200;BME280;23096;50.892;16.746;2022-09-09T09:12:15;99078.81;;;21.12;64.51
37200;BME280;23096;50.892;16.746;2022-09-09T09:14:43;99083.66;;;21.22;64.30
37200;BME280;23096;50.892;16.746;2022-09-09T09:17:13;99086.28;;;21.28;64.11
37200;BME280;23096;50.892;16.746;2022-09-09T09:19:44;99085.81;;;21.34;63.88
37200;BME280;23096;50.892;16.746;2022-09-09T09:27:40;99077.34;;;21.53;63.25
37200;BME280;23096;50.892;16.746;2022-09-09T09:32:52;99079.47;;;21.65;62.62
37200;BME280;23096;50.892;16.746;2022-09-09T09:35:26;99080.86;;;21.75;62.43
37200;BME280;23096;50.892;16.746;2022-09-09T09:37:52;99086.78;;;21.82;62.13
37200;BME280;23096;50.892;16.746;2022-09-09T09:40:20;99081.56;;;21.77;61.86
37200;BME280;23096;50.892;16.746;2022-09-09T09:42:48;99082.41;;;21.77;61.84
37200;BME280;23096;50.892;16.746;2022-09-09T09:45:31;99082.88;;;21.77;61.66
37200;BME280;23096;50.892;16.746;2022-09-09T09:48:14;99084.69;;;21.71;61.50
37200;BME280;23096;50.892;16.746;2022-09-09T09:50:50;99083.15;;;21.62;61.39
37200;BME280;23096;50.892;16.746;2022-09-09T09:55:55;99079.92;;;21.64;61.44
37200;BME280;23096;50.892;16.746;2022-09-09T09:58:25;99082.30;;;21.68;61.39
37200;BME280;23096;50.892;16.746;2022-09-09T10:00:54;99079.66;;;21.73;61.40
37200;BME280;23096;50.892;16.746;2022-09-09T10:03:24;99085.61;;;21.75;61.33
37200;BME280;23096;50.892;16.746;2022-09-09T10:05:54;99087.19;;;21.72;61.10
37200;BME280;23096;50.892;16.746;2022-09-09T10:08:22;99092.57;;;21.65;61.01
37200;BME280;23096;50.892;16.746;2022-09-09T10:16:34;99084.13;;;21.61;60.91
37200;BME280;23096;50.892;16.746;2022-09-09T10:30:22;99070.27;;;22.03;60.94
37200;BME280;23096;50.892;16.746;2022-09-09T10:33:09;99077.72;;;22.19;60.90
37200;BME280;23096;50.892;16.746;2022-09-09T10:35:52;99075.42;;;22.20;60.59
37200;BME280;23096;50.892;16.746;2022-09-09T10:43:39;99067.31;;;22.23;60.37
37200;BME280;23096;50.892;16.746;2022-09-09T10:57:31;99067.93;;;22.63;60.01
37200;BME280;23096;50.892;16.746;2022-09-09T11:00:02;99064.52;;;22.72;59.97
37200;BME280;23096;50.892;16.746;2022-09-09T11:02:30;99069.72;;;22.78;59.80
37200;BME280;23096;50.892;16.746;2022-09-09T11:05:05;99075.55;;;22.82;59.75
37200;BME280;23096;50.892;16.746;2022-09-09T11:07:40;99070.30;;;22.82;59.49
37200;BME280;23096;50.892;16.746;2022-09-09T11:10:17;99072.54;;;22.86;59.40
37200;BME280;23096;50.892;16.746;2022-09-09T11:12:58;99070.20;;;22.93;59.26
37200;BME280;23096;50.892;16.746;2022-09-09T11:15:30;99076.72;;;22.98;59.10
37200;BME280;23096;50.892;16.746;2022-09-09T11:18:04;99082.67;;;23.06;59.00
37200;BME280;23096;50.892;16.746;2022-09-09T11:20:31;99078.27;;;23.16;58.98
37200;BME280;23096;50.892;16.746;2022-09-09T11:23:17;99081.00;;;23.21;58.63
37200;BME280;23096;50.892;16.746;2022-09-09T11:25:51;99081.41;;;23.26;58.51
37200;BME280;23096;50.892;16.746;2022-09-09T11:29:07;99070.43;;;23.26;58.11
37200;BME280;23096;50.892;16.746;2022-09-09T11:33:53;99075.01;;;23.34;57.67
37200;BME280;23096;50.892;16.746;2022-09-09T11:44:44;99081.45;;;23.35;56.88
37200;BME280;23096;50.892;16.746;2022-09-09T11:47:18;99075.27;;;23.31;56.72
37200;BME280;23096;50.892;16.746;2022-09-09T11:49:53;99070.63;;;23.29;56.68
37200;BME280;23096;50.892;16.746;2022-09-09T11:52:23;99067.61;;;23.33;56.60
37200;BME280;23096;50.892;16.746;2022-09-09T11:54:54;99068.30;;;23.35;56.57
37200;BME280;23096;50.892;16.746;2022-09-09T11:57:23;99067.81;;;23.36;56.40
37200;BME280;23096;50.892;16.746;2022-09-09T11:59:51;99071.20;;;23.32;56.27
37200;BME280;23096;50.892;16.746;2022-09-09T12:02:26;99068.64;;;23.37;56.33
37200;BME280;23096;50.892;16.746;2022-09-09T12:05:06;99062.80;;;23.48;56.43
37200;BME280;23096;50.892;16.746;2022-09-09T12:07:35;99063.84;;;23.51;56.24
37200;BME280;23096;50.892;16.746;2022-09-09T12:12:50;99059.37;;;23.32;55.89
37200;BME280;23096;50.892;16.746;2022-09-09T12:15:18;99059.98;;;23.30;55.83
37200;BME280;23096;50.892;16.746;2022-09-09T12:17:49;99057.42;;;23.25;55.74
37200;BME280;23096;50.892;16.746;2022-09-09T12:20:20;99059.97;;;23.21;55.67
37200;BME280;23096;50.892;16.746;2022-09-09T12:23:10;99062.86;;;23.18;55.63
37200;BME280;23096;50.892;16.746;2022-09-09T12:28:27;99051.28;;;23.30;55.79
37200;BME280;23096;50.892;16.746;2022-09-09T12:31:03;99045.21;;;23.39;55.83
37200;BME280;23096;50.892;16.746;2022-09-09T12:33:38;99056.16;;;23.44;55.77
37200;BME280;23096;50.892;16.746;2022-09-09T12:36:02;99059.05;;;23.51;55.75
37200;BME280;23096;50.892;16.746;2022-09-09T12:38:34;99067.10;;;23.59;55.82
37200;BME280;23096;50.892;16.746;2022-09-09T12:41:01;99066.41;;;23.67;55.69
37200;BME280;23096;50.892;16.746;2022-09-09T12:43:28;99070.29;;;23.72;55.59
37200;BME280;23096;50.892;16.746;2022-09-09T12:45:58;99060.19;;;23.78;55.53
37200;BME280;23096;50.892;16.746;2022-09-09T12:48:31;99046.87;;;23.85;55.42
37200;BME280;23096;50.892;16.746;2022-09-09T12:50:56;99035.45;;;23.90;55.25
37200;BME280;23096;50.892;16.746;2022-09-09T12:53:30;99046.17;;;23.92;55.12
37200;BME280;23096;50.892;16.746;2022-09-09T12:56:00;99041.47;;;24.06;55.11
37200;BME280;23096;50.892;16.746;2022-09-09T12:58:28;99041.17;;;24.19;54.85
37200;BME280;23096;50.892;16.746;2022-09-09T13:00:58;99035.69;;;24.16;54.63
37200;BME280;23096;50.892;16.746;2022-09-09T13:03:25;99040.16;;;24.06;54.41
37200;BME280;23096;50.892;16.746;2022-09-09T13:05:52;99035.56;;;23.98;54.41
37200;BME280;23096;50.892;16.746;2022-09-09T13:08:21;99033.23;;;23.95;54.37
37200;BME280;23096;50.892;16.746;2022-09-09T13:11:02;99024.16;;;23.94;54.35
37200;BME280;23096;50.892;16.746;2022-09-09T13:13:35;99027.89;;;23.91;54.28
37200;BME280;23096;50.892;16.746;2022-09-09T13:16:03;99028.45;;;23.85;54.16
37200;BME280;23096;50.892;16.746;2022-09-09T13:18:39;99046.55;;;23.78;54.07
37200;BME280;23096;50.892;16.746;2022-09-09T13:21:05;99046.98;;;23.73;54.06
37200;BME280;23096;50.892;16.746;2022-09-09T13:23:36;99045.67;;;23.73;54.11
37200;BME280;23096;50.892;16.746;2022-09-09T13:26:04;99042.91;;;23.75;54.15
37200;BME280;23096;50.892;16.746;2022-09-09T13:28:33;99044.05;;;23.82;54.18
37200;BME280;23096;50.892;16.746;2022-09-09T13:31:01;99025.47;;;23.84;54.11
37200;BME280;23096;50.892;16.746;2022-09-09T13:33:32;99019.88;;;23.83;54.05
37200;BME280;23096;50.892;16.746;2022-09-09T13:36:03;99024.69;;;23.78;53.92
37200;BME280;23096;50.892;16.746;2022-09-09T13:38:53;99018.11;;;23.78;53.89
37200;BME280;23096;50.892;16.746;2022-09-09T13:41:20;99012.30;;;23.74;53.66
37200;BME280;23096;50.892;16.746;2022-09-09T13:43:49;99015.41;;;23.64;53.52
37200;BME280;23096;50.892;16.746;2022-09-09T13:51:43;98998.95;;;23.71;53.50
37200;BME280;23096;50.892;16.746;2022-09-09T13:54:09;98998.52;;;23.76;53.49
37200;BME280;23096;50.892;16.746;2022-09-09T13:56:36;98998.20;;;23.75;53.42
37200;BME280;23096;50.892;16.746;2022-09-09T13:59:05;98995.47;;;23.71;53.30
37200;BME280;23096;50.892;16.746;2022-09-09T14:01:33;98997.84;;;23.64;53.23
37200;BME280;23096;50.892;16.746;2022-09-09T14:04:00;99008.83;;;23.64;53.20
37200;BME280;23096;50.892;16.746;2022-09-09T14:06:26;99008.08;;;23.58;53.08
37200;BME280;23096;50.892;16.746;2022-09-09T14:08:52;99009.39;;;23.58;53.02
37200;BME280;23096;50.892;16.746;2022-09-09T14:11:20;99017.47;;;23.60;52.92
37200;BME280;23096;50.892;16.746;2022-09-09T14:13:47;99018.59;;;23.58;52.84
37200;BME280;23096;50.892;16.746;2022-09-09T14:16:15;99019.71;;;23.55;52.76
37200;BME280;23096;50.892;16.746;2022-09-09T14:18:45;99018.17;;;23.52;52.73
37200;BME280;23096;50.892;16.746;2022-09-09T14:21:11;99018.44;;;23.49;52.73
37200;BME280;23096;50.892;16.746;2022-09-09T14:23:37;99012.48;;;23.47;52.71
37200;BME280;23096;50.892;16.746;2022-09-09T14:26:08;99017.68;;;23.43;52.75
37200;BME280;23096;50.892;16.746;2022-09-09T14:28:35;99012.48;;;23.38;52.78
37200;BME280;23096;50.892;16.746;2022-09-09T14:31:02;99016.69;;;23.34;52.90
37200;BME280;23096;50.892;16.746;2022-09-09T14:33:29;99021.75;;;23.32;53.17
37200;BME280;23096;50.892;16.746;2022-09-09T14:35:56;99013.08;;;23.26;53.37
37200;BME280;23096;50.892;16.746;2022-09-09T14:38:23;99013.70;;;23.24;53.59
37200;BME280;23096;50.892;16.746;2022-09-09T14:40:49;99013.37;;;23.23;53.79
37200;BME280;23096;50.892;16.746;2022-09-09T14:43:15;99011.36;;;23.21;53.91
37200;BME280;23096;50.892;16.746;2022-09-09T14:45:43;99006.56;;;23.20;54.04
37200;BME280;23096;50.892;16.746;2022-09-09T14:48:09;99007.19;;;23.18;54.11
37200;BME280;23096;50.892;16.746;2022-09-09T14:50:35;98996.12;;;23.14;54.25
37200;BME280;23096;50.892;16.746;2022-09-09T14:53:03;98996.61;;;23.14;54.35